createdAt,value
2017-08-28T00:02:10.528Z,7.40
2017-08-28T00:04:38.187Z,7.30
2017-08-28T00:07:05.891Z,7.03
2017-08-28T00:09:33.551Z,6.40
2017-08-28T00:12:01.251Z,6.53
2017-08-28T00:14:28.920Z,7.13
2017-08-28T00:16:57.389Z,6.00
2017-08-28T00:19:25.059Z,6.50
2017-08-28T00:21:52.773Z,6.33
2017-08-28T00:24:20.440Z,7.00
2017-08-28T00:26:48.140Z,5.67
2017-08-28T00:29:15.791Z,6.53
2017-08-28T00:31:43.508Z,6.30
2017-08-28T00:34:11.175Z,6.17
2017-08-28T00:36:38.852Z,6.40
2017-08-28T00:39:06.561Z,6.27
2017-08-28T00:41:34.234Z,5.50
2017-08-28T00:44:01.952Z,6.70
2017-08-28T00:46:29.632Z,6.17
2017-08-28T00:48:57.419Z,6.10
2017-08-28T00:51:25.100Z,6.50
2017-08-28T00:53:52.838Z,7.10
2017-08-28T00:56:20.528Z,6.43
2017-08-28T00:58:48.240Z,5.27
2017-08-28T01:01:15.928Z,5.40
2017-08-28T01:03:43.680Z,5.40
2017-08-28T01:06:11.381Z,5.30
2017-08-28T01:08:39.056Z,5.47
2017-08-28T01:11:06.770Z,5.40
2017-08-28T01:13:34.427Z,6.00
2017-08-28T01:16:02.136Z,5.63
2017-08-28T01:18:29.815Z,5.43
2017-08-28T01:20:57.541Z,6.37
2017-08-28T01:23:25.208Z,6.03
2017-08-28T01:25:52.924Z,6.30
2017-08-28T01:28:20.586Z,5.57
2017-08-28T01:30:48.300Z,5.67
2017-08-28T01:33:16.740Z,5.90
2017-08-28T01:35:44.403Z,6.93
2017-08-28T01:38:12.103Z,5.90
2017-08-28T01:40:39.768Z,5.50
2017-08-28T01:43:07.464Z,5.73
2017-08-28T01:45:35.137Z,5.93
2017-08-28T01:48:02.852Z,5.93
2017-08-28T01:50:30.517Z,5.57
2017-08-28T01:52:58.221Z,5.63
2017-08-28T01:55:25.890Z,6.67
2017-08-28T01:57:53.593Z,6.37
2017-08-28T02:00:22.021Z,5.57
2017-08-28T02:02:49.719Z,5.80
2017-08-28T02:05:17.375Z,5.83
2017-08-28T02:07:45.849Z,5.40
2017-08-28T02:10:13.515Z,6.20
2017-08-28T02:12:41.220Z,6.00
2017-08-28T02:15:08.897Z,6.13
2017-08-28T02:17:36.627Z,6.30
2017-08-28T02:20:04.298Z,6.40
2017-08-28T02:22:32.000Z,5.63
2017-08-28T02:24:59.659Z,5.67
2017-08-28T02:27:27.360Z,6.20
2017-08-28T02:29:55.024Z,5.80
2017-08-28T02:32:22.736Z,6.27
2017-08-28T02:34:50.400Z,5.80
2017-08-28T02:37:18.100Z,6.60
2017-08-28T02:39:45.764Z,5.67
2017-08-28T02:42:13.470Z,6.23
2017-08-28T02:44:41.131Z,5.77
2017-08-28T02:47:08.792Z,5.77
2017-08-28T02:49:36.496Z,5.97
2017-08-28T02:52:04.156Z,5.47
2017-08-28T02:54:31.855Z,5.73
2017-08-28T02:56:59.514Z,6.07
2017-08-28T02:59:27.221Z,5.93
2017-08-28T03:01:54.936Z,5.40
2017-08-28T03:04:22.635Z,5.70
2017-08-28T03:06:50.290Z,6.37
2017-08-28T03:09:17.995Z,6.13
2017-08-28T03:11:45.659Z,5.43
2017-08-28T03:14:13.371Z,6.20
2017-08-28T03:16:41.073Z,5.90
2017-08-28T03:19:08.776Z,6.00
2017-08-28T03:21:36.448Z,6.07
2017-08-28T03:24:04.923Z,6.00
2017-08-28T03:26:32.596Z,6.50
2017-08-28T03:29:00.298Z,6.60
2017-08-28T03:31:27.959Z,5.60
2017-08-28T03:33:55.672Z,5.50
2017-08-28T03:36:23.371Z,6.40
2017-08-28T03:38:51.111Z,5.73
2017-08-28T03:41:18.816Z,5.63
2017-08-28T03:43:46.561Z,6.20
2017-08-28T03:46:14.255Z,6.77
2017-08-28T03:48:41.997Z,6.80
2017-08-28T03:51:09.703Z,6.30
2017-08-28T03:53:37.453Z,6.17
2017-08-28T03:56:05.161Z,6.57
2017-08-28T03:58:32.904Z,6.50
2017-08-28T04:01:00.650Z,6.37
2017-08-28T04:03:28.384Z,6.90
2017-08-28T04:05:56.115Z,6.00
2017-08-28T04:08:23.815Z,5.97
2017-08-28T04:10:51.565Z,6.47
2017-08-28T04:13:19.990Z,6.50
2017-08-28T04:15:47.702Z,5.93
2017-08-28T04:18:15.375Z,6.80
2017-08-28T04:20:43.089Z,6.97
2017-08-28T04:23:10.763Z,5.90
2017-08-28T04:25:38.464Z,7.17
2017-08-28T04:28:06.126Z,7.33
2017-08-28T04:30:34.642Z,6.77
2017-08-28T04:33:02.304Z,6.83
2017-08-28T04:35:30.015Z,6.90
2017-08-28T04:37:57.717Z,6.77
2017-08-28T04:40:25.459Z,7.60
2017-08-28T04:42:53.109Z,6.73
2017-08-28T04:45:21.587Z,7.50
2017-08-28T04:47:49.243Z,7.87
2017-08-28T04:50:16.944Z,8.67
2017-08-28T04:52:44.595Z,7.73
2017-08-28T04:55:12.311Z,7.53
2017-08-28T04:57:39.987Z,8.30
2017-08-28T05:00:07.690Z,7.60
2017-08-28T05:02:35.351Z,8.07
2017-08-28T05:05:03.063Z,8.43
2017-08-28T05:07:30.732Z,7.97
2017-08-28T05:09:58.438Z,7.70
2017-08-28T05:12:26.100Z,8.13
2017-08-28T05:14:53.763Z,8.10
2017-08-28T05:17:21.468Z,7.50
2017-08-28T05:19:49.127Z,8.43
2017-08-28T05:22:16.823Z,7.57
2017-08-28T05:24:44.486Z,7.33
2017-08-28T05:27:12.191Z,7.03
2017-08-28T05:29:39.858Z,7.23
2017-08-28T05:32:07.559Z,7.27
2017-08-28T05:34:35.219Z,6.97
2017-08-28T05:37:02.916Z,6.60
2017-08-28T05:39:30.571Z,6.10
2017-08-28T05:41:58.271Z,5.90
2017-08-28T05:44:25.931Z,6.60
2017-08-28T05:46:53.640Z,5.80
2017-08-28T05:49:21.309Z,6.00
2017-08-28T05:51:49.046Z,7.10
2017-08-28T05:54:16.716Z,6.03
2017-08-28T05:56:44.423Z,6.30
2017-08-28T05:59:12.847Z,5.60
2017-08-28T06:01:40.546Z,5.20
2017-08-28T06:04:08.212Z,5.73
2017-08-28T06:06:35.911Z,5.37
2017-08-28T06:09:03.643Z,5.80
2017-08-28T06:11:31.350Z,6.23
2017-08-28T06:13:59.004Z,5.83
2017-08-28T06:16:26.707Z,6.13
2017-08-28T06:18:54.374Z,5.37
2017-08-28T06:21:22.079Z,5.73
2017-08-28T06:23:49.736Z,5.37
2017-08-28T06:26:17.447Z,5.33
2017-08-28T06:28:45.111Z,5.30
2017-08-28T06:31:12.776Z,4.60
2017-08-28T06:33:40.487Z,5.60
2017-08-28T06:36:08.144Z,4.83
2017-08-28T06:38:35.845Z,5.17
2017-08-28T06:41:03.512Z,5.40
2017-08-28T06:43:31.213Z,4.77
2017-08-28T06:45:58.872Z,5.37
2017-08-28T06:48:26.589Z,5.30
2017-08-28T06:50:54.243Z,5.83
2017-08-28T06:53:21.952Z,5.70
2017-08-28T06:55:49.616Z,5.20
2017-08-28T06:58:17.311Z,5.70
2017-08-28T07:00:44.966Z,4.77
2017-08-28T07:03:12.671Z,4.80
2017-08-28T07:05:40.327Z,4.50
2017-08-28T07:08:08.020Z,5.03
2017-08-28T07:10:35.679Z,4.57
2017-08-28T07:13:03.384Z,4.43
2017-08-28T07:15:31.052Z,4.70
2017-08-28T07:17:58.755Z,4.97
2017-08-28T07:20:26.419Z,4.93
2017-08-28T07:22:54.125Z,4.40
2017-08-28T07:25:21.792Z,5.40
2017-08-28T07:27:49.495Z,4.53
2017-08-28T07:30:17.153Z,5.40
2017-08-28T07:32:44.856Z,4.60
2017-08-28T07:35:12.523Z,4.70
2017-08-28T07:37:40.182Z,4.27
2017-08-28T07:40:07.884Z,5.17
2017-08-28T07:42:35.547Z,4.60
2017-08-28T07:45:03.261Z,4.83
2017-08-28T07:47:30.916Z,4.30
2017-08-28T07:49:58.624Z,4.73
2017-08-28T07:52:26.286Z,4.70
2017-08-28T07:54:53.995Z,3.87
2017-08-28T07:57:21.664Z,3.73
2017-08-28T07:59:49.374Z,3.90
2017-08-28T08:02:17.039Z,4.37
2017-08-28T08:04:44.755Z,4.07
2017-08-28T08:07:12.407Z,4.27
2017-08-28T08:09:40.872Z,4.50
2017-08-28T08:12:08.532Z,4.87
2017-08-28T08:14:36.237Z,3.90
2017-08-28T08:17:03.916Z,4.00
2017-08-28T08:19:31.635Z,3.90
2017-08-28T08:22:00.096Z,4.10
2017-08-28T08:24:27.829Z,3.30
2017-08-28T08:26:55.519Z,4.13
2017-08-28T08:29:23.202Z,3.30
2017-08-28T08:31:50.952Z,3.50
2017-08-28T08:34:23.324Z,4.10
2017-08-28T08:36:51.019Z,4.27
2017-08-28T08:39:18.686Z,3.33
2017-08-28T08:41:46.432Z,3.60
2017-08-28T08:44:14.140Z,3.47
2017-08-28T08:46:41.830Z,4.03
2017-08-28T08:49:09.487Z,4.07
2017-08-28T08:51:37.194Z,4.03
2017-08-28T08:54:04.904Z,4.10
2017-08-28T08:56:32.614Z,3.97
2017-08-28T08:59:00.274Z,3.90
2017-08-28T09:01:27.984Z,4.37
2017-08-28T09:03:55.644Z,4.20
2017-08-28T09:06:23.304Z,4.07
2017-08-28T09:08:51.771Z,3.70
2017-08-28T09:11:19.432Z,3.83
2017-08-28T09:13:47.127Z,4.30
2017-08-28T09:16:14.788Z,3.90
2017-08-28T09:18:42.495Z,3.43
2017-08-28T09:21:10.167Z,3.37
2017-08-28T09:23:37.905Z,3.80
2017-08-28T09:26:05.563Z,3.73
2017-08-28T09:28:33.233Z,4.00
2017-08-28T09:31:00.939Z,3.87
2017-08-28T09:33:28.600Z,4.00
2017-08-28T09:35:56.303Z,4.00
2017-08-28T09:38:23.955Z,4.30
2017-08-28T09:40:51.668Z,4.10
2017-08-28T09:43:19.332Z,3.50
2017-08-28T09:45:47.033Z,4.00
2017-08-28T09:48:14.689Z,4.30
2017-08-28T09:50:42.395Z,3.70
2017-08-28T09:53:10.052Z,3.60
2017-08-28T09:55:37.787Z,4.00
2017-08-28T09:58:05.473Z,4.10
2017-08-28T10:00:33.177Z,4.30
2017-08-28T10:03:00.832Z,3.60
2017-08-28T10:05:28.530Z,4.70
2017-08-28T10:07:56.188Z,4.10
2017-08-28T10:10:23.853Z,4.10
2017-08-28T10:12:51.555Z,4.80
2017-08-28T10:15:19.236Z,4.00
2017-08-28T10:17:46.951Z,4.23
2017-08-28T10:20:14.619Z,5.10
2017-08-28T10:22:42.324Z,4.63
2017-08-28T10:25:09.980Z,4.67
2017-08-28T10:27:37.727Z,4.33
2017-08-28T10:30:05.396Z,4.63
2017-08-28T10:32:33.099Z,4.97
2017-08-28T10:35:00.756Z,4.80
2017-08-28T10:37:28.466Z,4.23
2017-08-28T10:39:56.123Z,4.70
2017-08-28T10:42:23.828Z,5.97
2017-08-28T10:44:51.489Z,5.00
2017-08-28T10:47:19.192Z,5.33
2017-08-28T10:49:46.856Z,5.30
2017-08-28T10:52:14.564Z,4.50
2017-08-28T10:54:42.227Z,5.30
2017-08-28T10:57:09.933Z,5.27
2017-08-28T10:59:37.612Z,5.50
2017-08-28T11:02:05.329Z,5.10
2017-08-28T11:04:33.766Z,6.10
2017-08-28T11:07:01.481Z,6.33
2017-08-28T11:09:29.148Z,5.30
2017-08-28T11:11:56.867Z,5.83
2017-08-28T11:14:24.533Z,6.00
2017-08-28T11:16:52.198Z,5.80
2017-08-28T11:19:19.908Z,6.17
2017-08-28T11:21:47.572Z,6.57
2017-08-28T11:24:15.284Z,5.13
2017-08-28T11:26:42.951Z,7.00
2017-08-28T11:29:10.668Z,6.20
2017-08-28T11:31:38.331Z,5.63
2017-08-28T11:34:06.052Z,5.40
2017-08-28T11:36:33.719Z,6.07
2017-08-28T11:39:01.437Z,6.10
2017-08-28T11:41:29.105Z,5.90
2017-08-28T11:43:56.815Z,6.70
2017-08-28T11:46:24.475Z,5.83
2017-08-28T11:48:52.175Z,5.20
2017-08-28T11:51:19.872Z,5.80
2017-08-28T11:53:47.592Z,6.50
2017-08-28T11:56:15.250Z,6.60
2017-08-28T11:58:42.908Z,6.07
2017-08-28T12:01:10.619Z,6.00
2017-08-28T12:03:38.295Z,5.87
2017-08-28T12:06:06.001Z,7.10
2017-08-28T12:08:33.664Z,6.10
2017-08-28T12:11:01.371Z,6.07
2017-08-28T12:13:29.040Z,6.70
2017-08-28T12:15:56.741Z,5.60
2017-08-28T12:18:24.400Z,6.30
2017-08-28T12:20:52.113Z,6.70
2017-08-28T12:23:19.780Z,6.37
2017-08-28T12:25:47.523Z,5.83
2017-08-28T12:28:15.188Z,5.87
2017-08-28T12:30:42.898Z,4.80
2017-08-28T12:33:10.616Z,5.23
2017-08-28T12:35:39.184Z,6.00
2017-08-28T12:38:06.888Z,5.53
2017-08-28T12:40:34.554Z,5.70
2017-08-28T12:43:02.252Z,5.80
2017-08-28T12:45:29.916Z,6.47
2017-08-28T12:47:57.620Z,4.73
2017-08-28T12:50:25.271Z,5.30
2017-08-28T12:52:52.980Z,5.93
2017-08-28T12:55:20.644Z,5.33
2017-08-28T12:57:48.354Z,6.10
2017-08-28T13:00:16.019Z,5.70
2017-08-28T13:02:43.735Z,5.83
2017-08-28T13:05:11.399Z,5.90
2017-08-28T13:07:39.113Z,5.70
2017-08-28T13:10:06.783Z,5.20
2017-08-28T13:12:35.260Z,5.27
2017-08-28T13:15:03.019Z,5.20
2017-08-28T13:17:30.688Z,5.53
2017-08-28T13:19:58.395Z,5.10
2017-08-28T13:22:26.076Z,5.23
2017-08-28T13:24:53.779Z,5.40
2017-08-28T13:27:21.444Z,5.00
2017-08-28T13:29:49.155Z,4.53
2017-08-28T13:32:16.820Z,4.70
2017-08-28T13:34:44.536Z,5.30
2017-08-28T13:37:12.209Z,6.10
2017-08-28T13:39:39.920Z,5.17
2017-08-28T13:42:07.620Z,4.60
2017-08-28T13:44:35.343Z,4.97
2017-08-28T13:47:03.004Z,5.40
2017-08-28T13:49:30.715Z,4.30
2017-08-28T13:51:58.380Z,4.57
2017-08-28T13:54:26.135Z,4.13
2017-08-28T13:56:53.973Z,4.50
2017-08-28T13:59:21.647Z,4.23
2017-08-28T14:01:49.352Z,4.40
2017-08-28T14:04:17.024Z,4.47
2017-08-28T14:06:44.724Z,4.47
2017-08-28T14:09:12.400Z,4.80
2017-08-28T14:11:40.103Z,4.53
2017-08-28T14:14:07.768Z,5.10
2017-08-28T14:16:35.480Z,4.50
2017-08-28T14:19:03.147Z,4.90
2017-08-28T14:21:30.861Z,3.90
2017-08-28T14:23:58.526Z,4.30
2017-08-28T14:26:26.233Z,3.80
2017-08-28T14:28:53.895Z,4.23
2017-08-28T14:31:21.600Z,4.00
2017-08-28T14:33:49.259Z,3.90
2017-08-28T14:36:16.988Z,4.50
2017-08-28T14:38:44.656Z,3.70
2017-08-28T14:41:12.367Z,3.60
2017-08-28T14:43:40.040Z,4.00
2017-08-28T14:46:07.708Z,3.90
2017-08-28T14:48:35.461Z,4.27
2017-08-28T14:51:03.123Z,4.07
2017-08-28T14:53:30.869Z,4.03
2017-08-28T14:55:58.536Z,3.80
2017-08-28T14:58:26.236Z,4.40
2017-08-28T15:00:53.895Z,3.80
2017-08-28T15:03:21.596Z,4.13
2017-08-28T15:05:49.254Z,4.13
2017-08-28T15:08:16.952Z,4.13
2017-08-28T15:10:44.614Z,4.70
2017-08-28T15:13:12.319Z,3.50
2017-08-28T15:15:39.983Z,3.90
2017-08-28T15:18:07.697Z,4.17
2017-08-28T15:20:35.356Z,4.30
2017-08-28T15:23:03.069Z,3.70
2017-08-28T15:25:30.728Z,4.00
2017-08-28T15:27:58.423Z,3.83
2017-08-28T15:30:26.128Z,3.87
2017-08-28T15:32:53.791Z,4.43
2017-08-28T15:35:22.267Z,4.20
2017-08-28T15:37:50.695Z,4.40
2017-08-28T15:40:18.410Z,4.27
2017-08-28T15:42:46.071Z,3.87
2017-08-28T15:45:13.774Z,4.27
2017-08-28T15:47:41.426Z,4.00
2017-08-28T15:50:09.128Z,3.50
2017-08-28T15:52:36.790Z,3.70
2017-08-28T15:55:04.491Z,3.50
2017-08-28T15:57:32.158Z,4.07
2017-08-28T15:59:59.868Z,4.17
2017-08-28T16:02:27.544Z,3.70
2017-08-28T16:04:55.250Z,4.00
2017-08-28T16:07:22.916Z,4.13
2017-08-28T16:09:50.638Z,3.83
2017-08-28T16:12:18.300Z,4.00
2017-08-28T16:14:46.012Z,3.80
2017-08-28T16:17:13.680Z,3.50
2017-08-28T16:19:41.392Z,3.87
2017-08-28T16:22:09.060Z,4.20
2017-08-28T16:24:36.774Z,3.37
2017-08-28T16:27:04.442Z,3.30
2017-08-28T16:29:32.108Z,4.10
2017-08-28T16:31:59.852Z,4.00
2017-08-28T16:34:27.515Z,3.70
2017-08-28T16:36:55.226Z,3.20
2017-08-28T16:39:22.885Z,4.17
2017-08-28T16:41:50.595Z,4.10
2017-08-28T16:44:18.263Z,4.10
2017-08-28T16:46:45.967Z,4.20
2017-08-28T16:49:13.636Z,4.07
2017-08-28T16:51:41.348Z,3.63
2017-08-28T16:54:09.027Z,4.30
2017-08-28T16:56:36.731Z,4.10
2017-08-28T16:59:04.401Z,3.93
2017-08-28T17:01:32.106Z,4.03
2017-08-28T17:03:59.772Z,4.10
2017-08-28T17:06:27.487Z,5.17
2017-08-28T17:08:55.151Z,5.27
2017-08-28T17:11:22.860Z,4.47
2017-08-28T17:13:50.530Z,4.83
2017-08-28T17:16:18.245Z,4.70
2017-08-28T17:18:45.916Z,4.40
2017-08-28T17:21:13.631Z,3.77
2017-08-28T17:23:46.997Z,4.50
2017-08-28T17:26:14.705Z,4.30
2017-08-28T17:28:42.416Z,4.20
2017-08-28T17:31:10.121Z,4.03
2017-08-28T17:33:37.792Z,4.00
2017-08-28T17:36:05.508Z,4.47
2017-08-28T17:38:33.173Z,4.00
2017-08-28T17:41:00.884Z,4.23
2017-08-28T17:43:28.543Z,3.87
2017-08-28T17:45:56.253Z,4.03
2017-08-28T17:48:23.975Z,4.50
2017-08-28T17:50:51.686Z,4.20
2017-08-28T17:53:19.354Z,3.57
2017-08-28T17:55:47.020Z,4.37
2017-08-28T17:58:14.728Z,5.10
2017-08-28T18:00:42.508Z,5.53
2017-08-28T18:03:10.262Z,7.30
2017-08-28T18:05:37.936Z,6.27
2017-08-28T18:08:05.646Z,6.60
2017-08-28T18:10:33.316Z,6.00
2017-08-28T18:13:01.028Z,7.17
2017-08-28T18:15:28.692Z,6.40
2017-08-28T18:17:56.413Z,6.13
2017-08-28T18:20:24.124Z,7.50
2017-08-28T18:22:51.844Z,6.40
2017-08-28T18:25:19.553Z,7.13
2017-08-28T18:27:47.263Z,7.00
2017-08-28T18:30:14.932Z,6.60
2017-08-28T18:32:42.689Z,5.77
2017-08-28T18:35:10.371Z,5.93
2017-08-28T18:37:38.121Z,5.67
2017-08-28T18:40:05.796Z,5.83
2017-08-28T18:42:33.514Z,5.53
2017-08-28T18:45:01.186Z,4.90
2017-08-28T18:47:28.897Z,5.10
2017-08-28T18:49:56.564Z,5.40
2017-08-28T18:52:24.280Z,5.03
2017-08-28T18:54:51.954Z,4.80
2017-08-28T18:57:19.661Z,5.50
2017-08-28T18:59:47.323Z,4.60
2017-08-28T19:02:15.023Z,4.10
2017-08-28T19:04:42.723Z,5.00
2017-08-28T19:07:10.442Z,4.77
2017-08-28T19:09:38.100Z,4.30
2017-08-28T19:12:05.825Z,5.20
2017-08-28T19:14:33.507Z,4.50
2017-08-28T19:17:01.254Z,4.80
2017-08-28T19:19:28.961Z,4.73
2017-08-28T19:21:56.668Z,4.70
2017-08-28T19:24:24.332Z,4.70
2017-08-28T19:26:52.039Z,5.43
2017-08-28T19:29:19.703Z,5.47
2017-08-28T19:31:47.372Z,6.20
2017-08-28T19:34:17.808Z,5.17
2017-08-28T19:36:45.471Z,5.00
2017-08-28T19:39:13.166Z,5.10
2017-08-28T19:41:40.828Z,5.30
2017-08-28T19:44:08.533Z,5.23
2017-08-28T19:46:36.196Z,4.93
2017-08-28T19:49:03.891Z,5.50
2017-08-28T19:51:31.562Z,6.37
2017-08-28T19:53:59.259Z,6.20
2017-08-28T19:56:26.951Z,5.40
2017-08-28T19:58:54.668Z,6.10
2017-08-28T20:01:22.376Z,6.10
2017-08-28T20:03:50.044Z,5.20
2017-08-28T20:06:17.777Z,5.30
2017-08-28T20:08:45.440Z,5.93
2017-08-28T20:11:13.147Z,5.90
2017-08-28T20:13:40.804Z,6.20
2017-08-28T20:16:08.520Z,6.70
2017-08-28T20:18:36.191Z,5.97
2017-08-28T20:21:04.672Z,6.60
2017-08-28T20:23:32.341Z,7.40
2017-08-28T20:26:00.091Z,6.20
2017-08-28T20:28:27.756Z,5.60
2017-08-28T20:30:55.424Z,5.90
2017-08-28T20:33:23.137Z,6.10
2017-08-28T20:35:50.811Z,6.63
2017-08-28T20:38:18.523Z,6.20
2017-08-28T20:40:46.199Z,6.27
2017-08-28T20:43:13.906Z,6.67
2017-08-28T20:45:41.577Z,6.53
2017-08-28T20:48:09.291Z,6.23
2017-08-28T20:50:36.990Z,6.13
2017-08-28T20:53:04.704Z,6.17
2017-08-28T20:55:32.367Z,6.10
2017-08-28T20:58:00.027Z,6.77
2017-08-28T21:00:27.737Z,5.40
2017-08-28T21:02:55.399Z,6.13
2017-08-28T21:05:23.103Z,6.30
2017-08-28T21:07:50.768Z,5.70
2017-08-28T21:10:18.484Z,6.37
2017-08-28T21:12:46.153Z,5.80
2017-08-28T21:15:13.876Z,6.30
2017-08-28T21:17:41.551Z,6.57
2017-08-28T21:20:09.264Z,6.10
2017-08-28T21:22:36.942Z,5.90
2017-08-28T21:25:04.649Z,6.30
2017-08-28T21:27:32.322Z,6.27
2017-08-28T21:30:00.033Z,6.53
2017-08-28T21:32:27.704Z,6.03
2017-08-28T21:34:55.412Z,6.60
2017-08-28T21:37:23.071Z,5.97
2017-08-28T21:39:50.784Z,5.60
2017-08-28T21:42:18.495Z,6.30
2017-08-28T21:44:46.202Z,6.23
2017-08-28T21:47:13.876Z,6.27
2017-08-28T21:49:41.580Z,6.67
2017-08-28T21:52:09.260Z,6.13
2017-08-28T21:54:37.616Z,6.60
2017-08-28T21:57:05.288Z,6.40
2017-08-28T21:59:32.996Z,6.30
2017-08-28T22:02:00.761Z,6.20
2017-08-28T22:04:28.495Z,6.97
2017-08-28T22:06:56.930Z,6.97
2017-08-28T22:09:24.653Z,6.40
2017-08-28T22:11:52.323Z,7.00
2017-08-28T22:14:20.023Z,6.20
2017-08-28T22:16:47.731Z,6.33
2017-08-28T22:19:15.491Z,6.57
2017-08-28T22:21:43.200Z,6.77
2017-08-28T22:24:10.911Z,6.57
2017-08-28T22:26:39.612Z,5.97
2017-08-28T22:29:07.292Z,6.17
2017-08-28T22:31:35.011Z,6.80
2017-08-28T22:34:02.721Z,7.17
2017-08-28T22:36:30.423Z,7.27
2017-08-28T22:38:58.120Z,7.10
2017-08-28T22:41:25.836Z,7.47
2017-08-28T22:43:53.499Z,7.70
2017-08-28T22:46:21.202Z,7.70
2017-08-28T22:48:48.864Z,7.80
2017-08-28T22:51:16.571Z,8.17
2017-08-28T22:53:44.231Z,7.00
2017-08-28T22:56:11.927Z,7.67
2017-08-28T22:58:39.588Z,7.07
2017-08-28T23:01:07.340Z,7.47
2017-08-28T23:03:35.098Z,7.20
2017-08-28T23:06:02.803Z,6.90
2017-08-28T23:08:30.475Z,8.37
2017-08-28T23:10:58.175Z,6.90
2017-08-28T23:13:25.836Z,6.63
2017-08-28T23:15:53.540Z,7.27
2017-08-28T23:18:21.202Z,6.97
2017-08-28T23:20:48.913Z,7.70
2017-08-28T23:23:16.580Z,6.67
2017-08-28T23:25:44.302Z,6.97
2017-08-28T23:28:11.964Z,7.40
2017-08-28T23:30:39.676Z,7.60
2017-08-28T23:33:07.345Z,8.27
2017-08-28T23:35:35.063Z,8.70
2017-08-28T23:38:02.732Z,7.93
2017-08-28T23:40:30.405Z,7.53
2017-08-28T23:42:58.100Z,7.90
2017-08-28T23:45:25.756Z,7.07
2017-08-28T23:47:53.462Z,7.40
2017-08-28T23:50:21.130Z,7.67
2017-08-28T23:52:48.831Z,7.90
2017-08-28T23:55:16.490Z,7.30
2017-08-28T23:57:44.196Z,7.70
